sensor_id;sensor_type;location;lat;lon;timestamp;temperature;humidity
40257;DHT22;25977;45.462;9.210;2022-11-18T00:36:03;14.30;91.10
40257;DHT22;25977;45.462;9.210;2022-11-18T00:38:29;14.20;91.10
40257;DHT22;25977;45.462;9.210;2022-11-18T00:41:02;14.30;91.10
40257;DHT22;25977;45.462;9.210;2022-11-18T00:43:29;14.30;91.40
40257;DHT22;25977;45.462;9.210;2022-11-18T00:45:55;14.30;91.10
40257;DHT22;25977;45.462;9.210;2022-11-18T00:48:21;14.30;91.10
40257;DHT22;25977;45.462;9.210;2022-11-18T00:50:48;14.30;91.20
40257;DHT22;25977;45.462;9.210;2022-11-18T00:53:15;14.30;91.20
40257;DHT22;25977;45.462;9.210;2022-11-18T00:55:41;14.30;91.20
40257;DHT22;25977;45.462;9.210;2022-11-18T00:58:07;14.30;91.20
40257;DHT22;25977;45.462;9.210;2022-11-18T01:00:32;14.30;91.20
40257;DHT22;25977;45.462;9.210;2022-11-18T01:02:58;14.30;91.20
40257;DHT22;25977;45.462;9.210;2022-11-18T01:05:24;14.30;91.20
40257;DHT22;25977;45.462;9.210;2022-11-18T01:07:49;14.30;91.20
40257;DHT22;25977;45.462;9.210;2022-11-18T01:10:15;14.30;91.20
40257;DHT22;25977;45.462;9.210;2022-11-18T01:12:41;14.30;91.20
40257;DHT22;25977;45.462;9.210;2022-11-18T01:15:25;14.30;91.20
40257;DHT22;25977;45.462;9.210;2022-11-18T01:17:51;14.30;91.30
40257;DHT22;25977;45.462;9.210;2022-11-18T01:20:17;14.30;91.30
40257;DHT22;25977;45.462;9.210;2022-11-18T01:22:42;14.20;91.30
40257;DHT22;25977;45.462;9.210;2022-11-18T01:25:08;14.20;91.30
40257;DHT22;25977;45.462;9.210;2022-11-18T01:27:34;14.20;91.40
40257;DHT22;25977;45.462;9.210;2022-11-18T01:29:59;14.20;91.40
40257;DHT22;25977;45.462;9.210;2022-11-18T01:32:27;14.30;91.40
40257;DHT22;25977;45.462;9.210;2022-11-18T01:34:53;14.20;91.40
40257;DHT22;25977;45.462;9.210;2022-11-18T01:37:19;14.20;91.40
40257;DHT22;25977;45.462;9.210;2022-11-18T01:39:44;14.20;91.50
40257;DHT22;25977;45.462;9.210;2022-11-18T01:42:14;14.10;91.60
40257;DHT22;25977;45.462;9.210;2022-11-18T01:45:14;14.10;91.60
40257;DHT22;25977;45.462;9.210;2022-11-18T01:47:52;14.00;91.70
40257;DHT22;25977;45.462;9.210;2022-11-18T01:50:21;14.00;91.70
40257;DHT22;25977;45.462;9.210;2022-11-18T01:52:48;14.00;91.70
40257;DHT22;25977;45.462;9.210;2022-11-18T01:55:25;14.10;91.80
40257;DHT22;25977;45.462;9.210;2022-11-18T01:57:57;13.90;91.80
40257;DHT22;25977;45.462;9.210;2022-11-18T02:00:25;14.00;91.80
40257;DHT22;25977;45.462;9.210;2022-11-18T02:02:51;14.00;91.80
40257;DHT22;25977;45.462;9.210;2022-11-18T02:05:18;14.00;91.80
40257;DHT22;25977;45.462;9.210;2022-11-18T02:07:45;14.00;91.80
40257;DHT22;25977;45.462;9.210;2022-11-18T02:10:21;14.00;91.80
40257;DHT22;25977;45.462;9.210;2022-11-18T02:12:49;14.10;91.80
40257;DHT22;25977;45.462;9.210;2022-11-18T02:15:18;14.10;91.80
40257;DHT22;25977;45.462;9.210;2022-11-18T02:18:02;14.10;91.70
40257;DHT22;25977;45.462;9.210;2022-11-18T02:20:32;14.10;91.70
40257;DHT22;25977;45.462;9.210;2022-11-18T02:23:16;14.10;91.70
40257;DHT22;25977;45.462;9.210;2022-11-18T02:31:28;14.20;91.60
40257;DHT22;25977;45.462;9.210;2022-11-18T02:36:59;14.20;91.60
40257;DHT22;25977;45.462;9.210;2022-11-18T02:39:38;14.30;91.60
40257;DHT22;25977;45.462;9.210;2022-11-18T02:42:09;14.30;91.50
40257;DHT22;25977;45.462;9.210;2022-11-18T02:44:39;14.30;91.50
40257;DHT22;25977;45.462;9.210;2022-11-18T02:47:09;14.30;91.50
40257;DHT22;25977;45.462;9.210;2022-11-18T02:49:39;14.20;91.50
40257;DHT22;25977;45.462;9.210;2022-11-18T02:52:08;14.30;91.50
40257;DHT22;25977;45.462;9.210;2022-11-18T02:54:36;14.30;91.70
40257;DHT22;25977;45.462;9.210;2022-11-18T02:57:04;14.30;91.50
40257;DHT22;25977;45.462;9.210;2022-11-18T02:59:30;14.20;91.50
40257;DHT22;25977;45.462;9.210;2022-11-18T03:01:57;14.20;91.50
40257;DHT22;25977;45.462;9.210;2022-11-18T03:04:24;14.30;91.50
40257;DHT22;25977;45.462;9.210;2022-11-18T03:09:39;14.20;91.50
40257;DHT22;25977;45.462;9.210;2022-11-18T03:18:38;14.30;91.50
40257;DHT22;25977;45.462;9.210;2022-11-18T03:21:16;14.30;91.50
40257;DHT22;25977;45.462;9.210;2022-11-18T03:23:53;14.20;91.50
40257;DHT22;25977;45.462;9.210;2022-11-18T03:26:44;14.20;91.60
40257;DHT22;25977;45.462;9.210;2022-11-18T03:29:30;14.20;91.60
40257;DHT22;25977;45.462;9.210;2022-11-18T03:32:05;14.20;91.60
40257;DHT22;25977;45.462;9.210;2022-11-18T03:34:40;14.10;91.80
40257;DHT22;25977;45.462;9.210;2022-11-18T03:37:10;14.10;91.80
40257;DHT22;25977;45.462;9.210;2022-11-18T03:39:41;14.20;91.70
40257;DHT22;25977;45.462;9.210;2022-11-18T03:42:18;14.20;91.70
40257;DHT22;25977;45.462;9.210;2022-11-18T03:44:50;14.20;91.60
40257;DHT22;25977;45.462;9.210;2022-11-18T03:47:25;14.20;91.60
40257;DHT22;25977;45.462;9.210;2022-11-18T03:50:01;14.20;91.60
40257;DHT22;25977;45.462;9.210;2022-11-18T03:52:32;14.30;91.60
40257;DHT22;25977;45.462;9.210;2022-11-18T03:55:06;14.30;91.50
40257;DHT22;25977;45.462;9.210;2022-11-18T04:00:13;14.30;91.50
40257;DHT22;25977;45.462;9.210;2022-11-18T04:02:39;14.10;91.70
40257;DHT22;25977;45.462;9.210;2022-11-18T04:05:08;14.10;91.70
40257;DHT22;25977;45.462;9.210;2022-11-18T04:10:29;14.10;91.60
40257;DHT22;25977;45.462;9.210;2022-11-18T04:13:18;14.10;91.60
40257;DHT22;25977;45.462;9.210;2022-11-18T04:15:44;14.20;91.60
40257;DHT22;25977;45.462;9.210;2022-11-18T04:18:10;14.10;91.50
40257;DHT22;25977;45.462;9.210;2022-11-18T04:20:36;14.20;91.50
40257;DHT22;25977;45.462;9.210;2022-11-18T04:23:03;14.20;91.50
40257;DHT22;25977;45.462;9.210;2022-11-18T04:25:29;14.20;91.40
40257;DHT22;25977;45.462;9.210;2022-11-18T04:27:55;14.20;91.40
40257;DHT22;25977;45.462;9.210;2022-11-18T04:30:21;14.30;91.40
40257;DHT22;25977;45.462;9.210;2022-11-18T04:32:47;14.30;91.40
40257;DHT22;25977;45.462;9.210;2022-11-18T04:35:13;14.30;91.40
40257;DHT22;25977;45.462;9.210;2022-11-18T04:37:39;14.30;91.40
40257;DHT22;25977;45.462;9.210;2022-11-18T04:40:05;14.30;91.40
40257;DHT22;25977;45.462;9.210;2022-11-18T04:42:31;14.30;91.40
40257;DHT22;25977;45.462;9.210;2022-11-18T04:44:57;14.30;91.40
40257;DHT22;25977;45.462;9.210;2022-11-18T04:47:23;14.30;91.30
40257;DHT22;25977;45.462;9.210;2022-11-18T04:49:48;14.30;91.30
40257;DHT22;25977;45.462;9.210;2022-11-18T04:52:14;14.30;91.30
40257;DHT22;25977;45.462;9.210;2022-11-18T04:54:40;14.30;91.30
40257;DHT22;25977;45.462;9.210;2022-11-18T04:57:06;14.20;91.30
40257;DHT22;25977;45.462;9.210;2022-11-18T04:59:32;14.30;91.30
40257;DHT22;25977;45.462;9.210;2022-11-18T05:01:58;14.30;91.30
40257;DHT22;25977;45.462;9.210;2022-11-18T05:04:28;14.30;91.20
40257;DHT22;25977;45.462;9.210;2022-11-18T05:06:55;14.30;91.30
40257;DHT22;25977;45.462;9.210;2022-11-18T05:09:22;14.30;91.30
40257;DHT22;25977;45.462;9.210;2022-11-18T05:11:48;14.20;91.30
40257;DHT22;25977;45.462;9.210;2022-11-18T05:14:32;14.30;91.30
40257;DHT22;25977;45.462;9.210;2022-11-18T05:17:00;14.30;91.30
40257;DHT22;25977;45.462;9.210;2022-11-18T05:19:26;14.30;91.30
40257;DHT22;25977;45.462;9.210;2022-11-18T05:21:52;14.30;91.30
40257;DHT22;25977;45.462;9.210;2022-11-18T05:24:18;14.10;91.40
40257;DHT22;25977;45.462;9.210;2022-11-18T05:26:45;14.20;91.40
40257;DHT22;25977;45.462;9.210;2022-11-18T05:29:11;14.20;91.40
40257;DHT22;25977;45.462;9.210;2022-11-18T05:31:37;14.20;91.40
40257;DHT22;25977;45.462;9.210;2022-11-18T05:34:03;14.20;91.40
40257;DHT22;25977;45.462;9.210;2022-11-18T05:36:29;14.20;91.40
40257;DHT22;25977;45.462;9.210;2022-11-18T05:38:57;14.20;91.40
40257;DHT22;25977;45.462;9.210;2022-11-18T05:41:23;14.20;91.40
40257;DHT22;25977;45.462;9.210;2022-11-18T05:44:07;14.20;91.40
40257;DHT22;25977;45.462;9.210;2022-11-18T05:46:33;14.20;91.50
40257;DHT22;25977;45.462;9.210;2022-11-18T05:48:59;14.20;91.50
40257;DHT22;25977;45.462;9.210;2022-11-18T05:51:24;14.20;91.50
40257;DHT22;25977;45.462;9.210;2022-11-18T05:53:51;14.10;91.50
40257;DHT22;25977;45.462;9.210;2022-11-18T05:56:34;14.10;91.60
40257;DHT22;25977;45.462;9.210;2022-11-18T05:59:01;14.10;91.60
40257;DHT22;25977;45.462;9.210;2022-11-18T06:01:37;14.10;91.90
40257;DHT22;25977;45.462;9.210;2022-11-18T06:04:25;14.10;91.70
40257;DHT22;25977;45.462;9.210;2022-11-18T06:06:56;14.10;91.70
40257;DHT22;25977;45.462;9.210;2022-11-18T06:09:25;14.00;91.70
40257;DHT22;25977;45.462;9.210;2022-11-18T06:11:56;14.00;91.70
40257;DHT22;25977;45.462;9.210;2022-11-18T06:14:44;14.00;91.70
40257;DHT22;25977;45.462;9.210;2022-11-18T06:17:17;14.00;91.70
40257;DHT22;25977;45.462;9.210;2022-11-18T06:19:44;14.10;91.70
40257;DHT22;25977;45.462;9.210;2022-11-18T06:22:09;14.00;91.70
40257;DHT22;25977;45.462;9.210;2022-11-18T06:24:35;14.10;91.70
40257;DHT22;25977;45.462;9.210;2022-11-18T06:27:02;14.10;91.70
40257;DHT22;25977;45.462;9.210;2022-11-18T06:29:30;14.10;91.70
40257;DHT22;25977;45.462;9.210;2022-11-18T06:31:55;14.10;91.70
40257;DHT22;25977;45.462;9.210;2022-11-18T06:34:22;14.10;91.60
40257;DHT22;25977;45.462;9.210;2022-11-18T06:36:47;14.10;91.60
40257;DHT22;25977;45.462;9.210;2022-11-18T06:39:13;14.00;91.60
40257;DHT22;25977;45.462;9.210;2022-11-18T06:41:39;14.10;91.60
40257;DHT22;25977;45.462;9.210;2022-11-18T06:44:04;14.20;91.60
40257;DHT22;25977;45.462;9.210;2022-11-18T06:46:31;14.10;91.60
40257;DHT22;25977;45.462;9.210;2022-11-18T06:49:16;14.20;91.60
40257;DHT22;25977;45.462;9.210;2022-11-18T06:51:42;14.10;91.50
40257;DHT22;25977;45.462;9.210;2022-11-18T06:54:08;14.20;91.50
40257;DHT22;25977;45.462;9.210;2022-11-18T06:56:34;14.20;91.50
40257;DHT22;25977;45.462;9.210;2022-11-18T06:59:00;14.10;91.60
40257;DHT22;25977;45.462;9.210;2022-11-18T07:01:28;14.10;91.50
40257;DHT22;25977;45.462;9.210;2022-11-18T07:03:57;14.10;91.50
40257;DHT22;25977;45.462;9.210;2022-11-18T07:06:26;14.10;91.50
40257;DHT22;25977;45.462;9.210;2022-11-18T07:08:52;14.20;91.60
40257;DHT22;25977;45.462;9.210;2022-11-18T07:11:21;14.10;91.60
40257;DHT22;25977;45.462;9.210;2022-11-18T07:13:47;14.20;91.60
40257;DHT22;25977;45.462;9.210;2022-11-18T07:16:15;14.20;91.60
40257;DHT22;25977;45.462;9.210;2022-11-18T07:18:43;14.20;91.70
40257;DHT22;25977;45.462;9.210;2022-11-18T07:21:14;14.30;91.60
40257;DHT22;25977;45.462;9.210;2022-11-18T07:23:41;14.30;91.50
40257;DHT22;25977;45.462;9.210;2022-11-18T07:26:07;14.20;91.50
40257;DHT22;25977;45.462;9.210;2022-11-18T07:28:33;14.20;91.50
40257;DHT22;25977;45.462;9.210;2022-11-18T07:31:04;14.30;91.50
40257;DHT22;25977;45.462;9.210;2022-11-18T07:33:31;14.30;91.70
40257;DHT22;25977;45.462;9.210;2022-11-18T07:36:02;14.40;91.80
40257;DHT22;25977;45.462;9.210;2022-11-18T07:38:29;14.50;91.80
40257;DHT22;25977;45.462;9.210;2022-11-18T07:41:01;14.60;91.60
40257;DHT22;25977;45.462;9.210;2022-11-18T07:43:27;14.70;91.70
40257;DHT22;25977;45.462;9.210;2022-11-18T07:45:53;14.70;91.30
40257;DHT22;25977;45.462;9.210;2022-11-18T07:48:18;14.80;91.00
40257;DHT22;25977;45.462;9.210;2022-11-18T07:50:44;14.80;91.00
40257;DHT22;25977;45.462;9.210;2022-11-18T07:53:10;14.80;91.00
40257;DHT22;25977;45.462;9.210;2022-11-18T07:55:35;14.80;91.00
40257;DHT22;25977;45.462;9.210;2022-11-18T07:58:01;14.80;90.90
40257;DHT22;25977;45.462;9.210;2022-11-18T08:00:27;14.90;90.80
40257;DHT22;25977;45.462;9.210;2022-11-18T08:02:52;13.90;90.40
40257;DHT22;25977;45.462;9.210;2022-11-18T08:05:18;15.00;90.60
40257;DHT22;25977;45.462;9.210;2022-11-18T08:07:44;15.00;90.50
40257;DHT22;25977;45.462;9.210;2022-11-18T08:10:09;15.10;90.50
40257;DHT22;25977;45.462;9.210;2022-11-18T08:12:35;15.10;90.50
40257;DHT22;25977;45.462;9.210;2022-11-18T08:15:01;15.20;90.30
40257;DHT22;25977;45.462;9.210;2022-11-18T08:17:27;15.30;90.20
40257;DHT22;25977;45.462;9.210;2022-11-18T08:19:53;15.30;90.10
40257;DHT22;25977;45.462;9.210;2022-11-18T08:22:18;15.40;90.00
40257;DHT22;25977;45.462;9.210;2022-11-18T08:24:46;15.40;89.60
40257;DHT22;25977;45.462;9.210;2022-11-18T08:27:12;16.10;89.70
40257;DHT22;25977;45.462;9.210;2022-11-18T08:29:38;15.50;89.30
40257;DHT22;25977;45.462;9.210;2022-11-18T08:32:05;15.60;89.10
40257;DHT22;25977;45.462;9.210;2022-11-18T08:34:31;15.70;88.60
40257;DHT22;25977;45.462;9.210;2022-11-18T08:36:57;15.60;88.10
40257;DHT22;25977;45.462;9.210;2022-11-18T08:39:22;15.60;87.90
40257;DHT22;25977;45.462;9.210;2022-11-18T08:41:48;15.70;87.80
40257;DHT22;25977;45.462;9.210;2022-11-18T08:44:15;15.60;87.40
40257;DHT22;25977;45.462;9.210;2022-11-18T08:46:43;15.70;87.70
40257;DHT22;25977;45.462;9.210;2022-11-18T08:49:11;15.70;87.10
40257;DHT22;25977;45.462;9.210;2022-11-18T08:51:37;15.40;86.60
40257;DHT22;25977;45.462;9.210;2022-11-18T08:54:03;14.90;87.70
40257;DHT22;25977;45.462;9.210;2022-11-18T08:56:29;15.00;88.40
40257;DHT22;25977;45.462;9.210;2022-11-18T08:58:55;14.90;88.60
40257;DHT22;25977;45.462;9.210;2022-11-18T09:01:21;14.90;88.70
40257;DHT22;25977;45.462;9.210;2022-11-18T09:03:47;15.00;88.60
40257;DHT22;25977;45.462;9.210;2022-11-18T09:06:19;15.00;88.30
40257;DHT22;25977;45.462;9.210;2022-11-18T09:08:45;15.00;88.30
40257;DHT22;25977;45.462;9.210;2022-11-18T09:11:17;14.90;88.20
40257;DHT22;25977;45.462;9.210;2022-11-18T09:13:43;14.90;88.40
40257;DHT22;25977;45.462;9.210;2022-11-18T09:16:08;15.00;88.50
40257;DHT22;25977;45.462;9.210;2022-11-18T09:18:35;14.90;88.50
40257;DHT22;25977;45.462;9.210;2022-11-18T09:21:07;14.90;88.60
40257;DHT22;25977;45.462;9.210;2022-11-18T09:23:35;15.00;88.60
40257;DHT22;25977;45.462;9.210;2022-11-18T09:26:09;15.00;88.50
40257;DHT22;25977;45.462;9.210;2022-11-18T09:28:36;15.10;88.50
40257;DHT22;25977;45.462;9.210;2022-11-18T09:31:09;15.10;88.30
40257;DHT22;25977;45.462;9.210;2022-11-18T09:33:36;15.10;88.00
40257;DHT22;25977;45.462;9.210;2022-11-18T09:36:10;15.20;88.30
40257;DHT22;25977;45.462;9.210;2022-11-18T09:38:36;15.20;88.40
40257;DHT22;25977;45.462;9.210;2022-11-18T09:43:48;15.30;87.90
40257;DHT22;25977;45.462;9.210;2022-11-18T09:49:04;15.60;87.50
40257;DHT22;25977;45.462;9.210;2022-11-18T09:51:45;15.70;87.30
40257;DHT22;25977;45.462;9.210;2022-11-18T09:54:38;15.70;86.90
40257;DHT22;25977;45.462;9.210;2022-11-18T09:57:25;15.70;86.80
40257;DHT22;25977;45.462;9.210;2022-11-18T09:59:53;15.50;87.30
40257;DHT22;25977;45.462;9.210;2022-11-18T10:02:29;15.50;87.30
40257;DHT22;25977;45.462;9.210;2022-11-18T10:05:13;15.40;86.90
40257;DHT22;25977;45.462;9.210;2022-11-18T10:07:46;15.50;87.10
40257;DHT22;25977;45.462;9.210;2022-11-18T10:10:18;15.50;87.10
40257;DHT22;25977;45.462;9.210;2022-11-18T10:12:58;15.50;87.20
40257;DHT22;25977;45.462;9.210;2022-11-18T10:15:39;15.40;87.30
40257;DHT22;25977;45.462;9.210;2022-11-18T10:21:01;15.60;88.30
40257;DHT22;25977;45.462;9.210;2022-11-18T10:23:44;15.90;87.90
40257;DHT22;25977;45.462;9.210;2022-11-18T10:26:15;16.00;87.60
40257;DHT22;25977;45.462;9.210;2022-11-18T10:28:40;16.10;87.10
40257;DHT22;25977;45.462;9.210;2022-11-18T10:31:09;16.30;86.70
40257;DHT22;25977;45.462;9.210;2022-11-18T10:33:36;16.40;86.60
40257;DHT22;25977;45.462;9.210;2022-11-18T10:36:20;16.50;85.40
40257;DHT22;25977;45.462;9.210;2022-11-18T10:39:13;16.60;84.50
40257;DHT22;25977;45.462;9.210;2022-11-18T10:41:46;16.60;84.20
40257;DHT22;25977;45.462;9.210;2022-11-18T10:44:34;16.60;84.30
40257;DHT22;25977;45.462;9.210;2022-11-18T10:49:52;16.50;84.10
40257;DHT22;25977;45.462;9.210;2022-11-18T10:52:19;16.50;84.20
40257;DHT22;25977;45.462;9.210;2022-11-18T10:54:45;16.40;84.40
40257;DHT22;25977;45.462;9.210;2022-11-18T10:57:36;16.40;84.30
40257;DHT22;25977;45.462;9.210;2022-11-18T11:00:05;16.40;84.60
40257;DHT22;25977;45.462;9.210;2022-11-18T11:02:33;16.30;84.40
40257;DHT22;25977;45.462;9.210;2022-11-18T11:05:16;16.40;84.40
40257;DHT22;25977;45.462;9.210;2022-11-18T11:07:43;16.30;84.40
40257;DHT22;25977;45.462;9.210;2022-11-18T11:12:52;16.50;84.30
40257;DHT22;25977;45.462;9.210;2022-11-18T11:15:40;16.50;83.70
40257;DHT22;25977;45.462;9.210;2022-11-18T11:18:23;16.60;84.10
40257;DHT22;25977;45.462;9.210;2022-11-18T11:21:16;16.70;83.80
40257;DHT22;25977;45.462;9.210;2022-11-18T11:23:42;16.60;83.70
40257;DHT22;25977;45.462;9.210;2022-11-18T11:26:27;16.60;83.80
40257;DHT22;25977;45.462;9.210;2022-11-18T11:32:14;16.70;83.60
40257;DHT22;25977;45.462;9.210;2022-11-18T11:42:59;16.60;84.00
40257;DHT22;25977;45.462;9.210;2022-11-18T12:06:45;16.80;82.70
40257;DHT22;25977;45.462;9.210;2022-11-18T12:09:42;16.80;82.60
40257;DHT22;25977;45.462;9.210;2022-11-18T12:12:28;16.70;82.80
40257;DHT22;25977;45.462;9.210;2022-11-18T12:17:39;16.80;83.00
40257;DHT22;25977;45.462;9.210;2022-11-18T12:28:25;16.90;82.50
40257;DHT22;25977;45.462;9.210;2022-11-18T12:33:44;17.00;81.60
40257;DHT22;25977;45.462;9.210;2022-11-18T12:41:55;17.30;82.50
40257;DHT22;25977;45.462;9.210;2022-11-18T12:44:41;17.30;82.70
40257;DHT22;25977;45.462;9.210;2022-11-18T12:52:44;17.50;79.80
40257;DHT22;25977;45.462;9.210;2022-11-18T12:54:51;17.40;79.80
40257;DHT22;25977;45.462;9.210;2022-11-18T12:57:22;17.50;80.30
40257;DHT22;25977;45.462;9.210;2022-11-18T12:59:48;17.60;79.90
40257;DHT22;25977;45.462;9.210;2022-11-18T13:02:24;17.60;79.30
40257;DHT22;25977;45.462;9.210;2022-11-18T13:05:32;17.60;78.80
40257;DHT22;25977;45.462;9.210;2022-11-18T13:08:02;17.70;79.50
40257;DHT22;25977;45.462;9.210;2022-11-18T13:10:58;17.70;78.80
40257;DHT22;25977;45.462;9.210;2022-11-18T13:13:45;17.70;78.70
40257;DHT22;25977;45.462;9.210;2022-11-18T13:16:21;17.80;78.90
40257;DHT22;25977;45.462;9.210;2022-11-18T13:19:06;17.80;78.80
40257;DHT22;25977;45.462;9.210;2022-11-18T13:21:33;17.80;78.90
40257;DHT22;25977;45.462;9.210;2022-11-18T13:24:19;17.90;78.80
40257;DHT22;25977;45.462;9.210;2022-11-18T13:26:46;17.80;78.90
40257;DHT22;25977;45.462;9.210;2022-11-18T13:29:19;17.80;78.90
40257;DHT22;25977;45.462;9.210;2022-11-18T13:32:14;17.70;79.10
40257;DHT22;25977;45.462;9.210;2022-11-18T13:34:45;17.70;79.30
40257;DHT22;25977;45.462;9.210;2022-11-18T13:37:22;17.70;79.20
40257;DHT22;25977;45.462;9.210;2022-11-18T13:39:49;17.70;79.30
40257;DHT22;25977;45.462;9.210;2022-11-18T13:42:16;17.70;79.40
40257;DHT22;25977;45.462;9.210;2022-11-18T13:55:19;17.60;79.00
40257;DHT22;25977;45.462;9.210;2022-11-18T14:00:34;17.50;78.70
40257;DHT22;25977;45.462;9.210;2022-11-18T14:03:13;17.50;78.60
40257;DHT22;25977;45.462;9.210;2022-11-18T14:05:52;17.40;78.40
40257;DHT22;25977;45.462;9.210;2022-11-18T14:08:30;17.40;78.30
40257;DHT22;25977;45.462;9.210;2022-11-18T14:10:56;17.30;78.30
40257;DHT22;25977;45.462;9.210;2022-11-18T14:13:29;17.20;78.70
40257;DHT22;25977;45.462;9.210;2022-11-18T14:15:57;17.30;79.00
40257;DHT22;25977;45.462;9.210;2022-11-18T14:18:33;17.30;79.00
40257;DHT22;25977;45.462;9.210;2022-11-18T14:21:01;17.20;78.90
40257;DHT22;25977;45.462;9.210;2022-11-18T14:23:28;17.20;79.10
40257;DHT22;25977;45.462;9.210;2022-11-18T14:25:55;17.20;79.40
40257;DHT22;25977;45.462;9.210;2022-11-18T14:28:52;17.10;80.00
40257;DHT22;25977;45.462;9.210;2022-11-18T14:34:03;17.10;80.60
40257;DHT22;25977;45.462;9.210;2022-11-18T14:36:29;17.00;80.90
40257;DHT22;25977;45.462;9.210;2022-11-18T14:38:55;17.00;81.40
40257;DHT22;25977;45.462;9.210;2022-11-18T14:41:21;16.90;81.60
40257;DHT22;25977;45.462;9.210;2022-11-18T14:44:06;16.90;81.60
40257;DHT22;25977;45.462;9.210;2022-11-18T14:46:33;16.90;81.80
40257;DHT22;25977;45.462;9.210;2022-11-18T14:49:02;16.70;81.10
40257;DHT22;25977;45.462;9.210;2022-11-18T14:51:28;16.70;81.40
40257;DHT22;25977;45.462;9.210;2022-11-18T14:53:54;16.70;81.30
40257;DHT22;25977;45.462;9.210;2022-11-18T14:56:24;16.70;81.40
40257;DHT22;25977;45.462;9.210;2022-11-18T14:58:50;16.70;81.50
40257;DHT22;25977;45.462;9.210;2022-11-18T15:01:16;16.70;81.60
40257;DHT22;25977;45.462;9.210;2022-11-18T15:03:42;16.70;81.80
40257;DHT22;25977;45.462;9.210;2022-11-18T15:06:18;16.80;82.00
40257;DHT22;25977;45.462;9.210;2022-11-18T15:08:45;16.80;82.10
40257;DHT22;25977;45.462;9.210;2022-11-18T15:11:14;16.70;82.00
40257;DHT22;25977;45.462;9.210;2022-11-18T15:13:41;16.70;82.00
40257;DHT22;25977;45.462;9.210;2022-11-18T15:18:41;16.60;82.20
40257;DHT22;25977;45.462;9.210;2022-11-18T15:21:07;16.60;82.20
40257;DHT22;25977;45.462;9.210;2022-11-18T15:23:32;16.60;82.20
40257;DHT22;25977;45.462;9.210;2022-11-18T15:25:58;16.60;82.30
40257;DHT22;25977;45.462;9.210;2022-11-18T15:28:24;16.60;82.40
40257;DHT22;25977;45.462;9.210;2022-11-18T15:30:50;16.60;82.50
40257;DHT22;25977;45.462;9.210;2022-11-18T15:33:16;16.60;82.60
40257;DHT22;25977;45.462;9.210;2022-11-18T15:35:42;16.50;82.60
40257;DHT22;25977;45.462;9.210;2022-11-18T15:38:10;16.50;82.70
40257;DHT22;25977;45.462;9.210;2022-11-18T15:40:36;16.50;82.60
40257;DHT22;25977;45.462;9.210;2022-11-18T15:43:03;16.50;82.60
40257;DHT22;25977;45.462;9.210;2022-11-18T15:45:29;16.50;82.60
40257;DHT22;25977;45.462;9.210;2022-11-18T15:47:55;16.50;82.70
40257;DHT22;25977;45.462;9.210;2022-11-18T15:50:21;16.50;82.70
40257;DHT22;25977;45.462;9.210;2022-11-18T15:52:46;16.40;82.60
40257;DHT22;25977;45.462;9.210;2022-11-18T15:55:13;16.40;82.80
40257;DHT22;25977;45.462;9.210;2022-11-18T15:57:38;16.40;82.80
40257;DHT22;25977;45.462;9.210;2022-11-18T16:00:04;16.40;82.90
40257;DHT22;25977;45.462;9.210;2022-11-18T16:02:37;16.30;82.80
40257;DHT22;25977;45.462;9.210;2022-11-18T16:05:03;16.30;82.90
40257;DHT22;25977;45.462;9.210;2022-11-18T16:07:29;16.30;82.80
40257;DHT22;25977;45.462;9.210;2022-11-18T16:09:55;16.30;82.80
40257;DHT22;25977;45.462;9.210;2022-11-18T16:12:39;16.30;82.90
40257;DHT22;25977;45.462;9.210;2022-11-18T16:15:11;16.30;82.90
40257;DHT22;25977;45.462;9.210;2022-11-18T16:17:55;16.20;82.80
40257;DHT22;25977;45.462;9.210;2022-11-18T16:20:23;16.20;82.80
40257;DHT22;25977;45.462;9.210;2022-11-18T16:22:49;16.10;82.80
40257;DHT22;25977;45.462;9.210;2022-11-18T16:25:17;16.10;82.80
40257;DHT22;25977;45.462;9.210;2022-11-18T16:27:42;16.10;82.80
40257;DHT22;25977;45.462;9.210;2022-11-18T16:30:08;16.10;82.80
40257;DHT22;25977;45.462;9.210;2022-11-18T16:32:55;16.10;82.80
40257;DHT22;25977;45.462;9.210;2022-11-18T16:35:20;16.10;82.80
40257;DHT22;25977;45.462;9.210;2022-11-18T16:37:47;16.10;82.80
40257;DHT22;25977;45.462;9.210;2022-11-18T16:40:12;16.10;82.70
40257;DHT22;25977;45.462;9.210;2022-11-18T16:42:38;16.00;82.70
40257;DHT22;25977;45.462;9.210;2022-11-18T16:45:04;16.00;82.60
40257;DHT22;25977;45.462;9.210;2022-11-18T16:47:30;15.90;82.70
40257;DHT22;25977;45.462;9.210;2022-11-18T16:49:56;15.90;82.80
40257;DHT22;25977;45.462;9.210;2022-11-18T16:52:21;15.90;82.70
40257;DHT22;25977;45.462;9.210;2022-11-18T16:54:47;15.90;83.00
40257;DHT22;25977;45.462;9.210;2022-11-18T16:57:13;15.80;83.10
40257;DHT22;25977;45.462;9.210;2022-11-18T16:59:39;15.80;83.20
40257;DHT22;25977;45.462;9.210;2022-11-18T17:02:05;15.90;83.40
40257;DHT22;25977;45.462;9.210;2022-11-18T17:04:31;15.90;83.30
40257;DHT22;25977;45.462;9.210;2022-11-18T17:06:59;15.90;83.30
40257;DHT22;25977;45.462;9.210;2022-11-18T17:09:26;15.90;83.40
40257;DHT22;25977;45.462;9.210;2022-11-18T17:11:53;15.90;83.60
40257;DHT22;25977;45.462;9.210;2022-11-18T17:14:20;15.90;83.70
40257;DHT22;25977;45.462;9.210;2022-11-18T17:16:46;15.90;83.80
40257;DHT22;25977;45.462;9.210;2022-11-18T17:19:14;16.00;83.90
40257;DHT22;25977;45.462;9.210;2022-11-18T17:21:40;15.90;83.80
40257;DHT22;25977;45.462;9.210;2022-11-18T17:24:06;15.90;83.90
40257;DHT22;25977;45.462;9.210;2022-11-18T17:26:33;15.90;83.90
40257;DHT22;25977;45.462;9.210;2022-11-18T17:28:59;15.90;84.00
40257;DHT22;25977;45.462;9.210;2022-11-18T17:31:25;15.90;84.00
40257;DHT22;25977;45.462;9.210;2022-11-18T17:33:52;15.90;84.00
40257;DHT22;25977;45.462;9.210;2022-11-18T17:36:20;15.90;84.00
40257;DHT22;25977;45.462;9.210;2022-11-18T17:38:48;15.90;84.00
40257;DHT22;25977;45.462;9.210;2022-11-18T17:41:16;15.90;83.70
40257;DHT22;25977;45.462;9.210;2022-11-18T17:44:03;15.80;83.60
40257;DHT22;25977;45.462;9.210;2022-11-18T17:46:29;15.80;83.30
40257;DHT22;25977;45.462;9.210;2022-11-18T17:48:56;15.80;83.10
40257;DHT22;25977;45.462;9.210;2022-11-18T17:51:23;15.90;82.90
40257;DHT22;25977;45.462;9.210;2022-11-18T17:53:49;15.80;82.60
40257;DHT22;25977;45.462;9.210;2022-11-18T17:56:16;15.80;82.30
40257;DHT22;25977;45.462;9.210;2022-11-18T17:58:42;15.80;81.90
40257;DHT22;25977;45.462;9.210;2022-11-18T18:01:08;15.80;81.10
40257;DHT22;25977;45.462;9.210;2022-11-18T18:03:35;15.80;80.90
40257;DHT22;25977;45.462;9.210;2022-11-18T18:06:01;15.80;80.50
40257;DHT22;25977;45.462;9.210;2022-11-18T18:08:27;15.80;80.60
40257;DHT22;25977;45.462;9.210;2022-11-18T18:10:52;15.80;80.60
40257;DHT22;25977;45.462;9.210;2022-11-18T18:13:18;15.80;80.20
40257;DHT22;25977;45.462;9.210;2022-11-18T18:16:02;15.70;79.80